sensor_id;sensor_type;location;lat;lon;timestamp;pressure;altitude;pressure_sealevel;temperature;humidity
63287;BME280;49410;55.708;37.522;2023-02-14T00:00:45;98240.38;;;0.74;nan
63287;BME280;49410;55.708;37.522;2023-02-14T00:03:12;98247.59;;;0.73;nan
63287;BME280;49410;55.708;37.522;2023-02-14T00:05:38;98246.06;;;0.81;nan
63287;BME280;49410;55.708;37.522;2023-02-14T00:08:04;98238.41;;;0.76;nan
63287;BME280;49410;55.708;37.522;2023-02-14T00:10:29;98242.09;;;0.75;nan
63287;BME280;49410;55.708;37.522;2023-02-14T00:12:55;98235.84;;;0.74;nan
63287;BME280;49410;55.708;37.522;2023-02-14T00:15:20;98242.50;;;0.80;nan
63287;BME280;49410;55.708;37.522;2023-02-14T00:17:55;98253.09;;;1.01;nan
63287;BME280;49410;55.708;37.522;2023-02-14T00:20:24;98250.69;;;0.88;nan
63287;BME280;49410;55.708;37.522;2023-02-14T00:22:49;98247.13;;;0.98;nan
63287;BME280;49410;55.708;37.522;2023-02-14T00:25:15;98248.97;;;1.07;nan
63287;BME280;49410;55.708;37.522;2023-02-14T00:27:41;98233.13;;;1.04;nan
63287;BME280;49410;55.708;37.522;2023-02-14T00:39:49;98250.25;;;0.93;nan
63287;BME280;49410;55.708;37.522;2023-02-14T00:42:15;98244.59;;;0.96;nan
63287;BME280;49410;55.708;37.522;2023-02-14T00:44:41;98253.66;;;0.95;nan
63287;BME280;49410;55.708;37.522;2023-02-14T00:47:06;98240.66;;;0.81;nan
63287;BME280;49410;55.708;37.522;2023-02-14T00:49:32;98248.03;;;0.79;nan
63287;BME280;49410;55.708;37.522;2023-02-14T00:51:57;98224.38;;;0.82;nan
63287;BME280;49410;55.708;37.522;2023-02-14T00:54:23;98253.41;;;0.79;nan
63287;BME280;49410;55.708;37.522;2023-02-14T00:56:48;98262.03;;;0.82;nan
63287;BME280;49410;55.708;37.522;2023-02-14T00:59:14;98258.94;;;0.87;nan
63287;BME280;49410;55.708;37.522;2023-02-14T01:01:39;98275.22;;;0.75;nan
63287;BME280;49410;55.708;37.522;2023-02-14T01:04:05;98280.03;;;0.72;nan
63287;BME280;49410;55.708;37.522;2023-02-14T01:06:32;98261.63;;;0.67;nan
63287;BME280;49410;55.708;37.522;2023-02-14T01:08:58;98269.41;;;0.90;nan
63287;BME280;49410;55.708;37.522;2023-02-14T01:11:24;98266.56;;;0.91;nan
63287;BME280;49410;55.708;37.522;2023-02-14T01:13:50;98263.75;;;0.83;nan
63287;BME280;49410;55.708;37.522;2023-02-14T01:16:20;98257.38;;;0.84;nan
63287;BME280;49410;55.708;37.522;2023-02-14T01:18:46;98258.94;;;0.67;nan
63287;BME280;49410;55.708;37.522;2023-02-14T01:21:27;98259.34;;;0.82;nan
63287;BME280;49410;55.708;37.522;2023-02-14T01:23:54;98264.03;;;0.90;nan
63287;BME280;49410;55.708;37.522;2023-02-14T01:26:21;98273.94;;;0.80;nan
63287;BME280;49410;55.708;37.522;2023-02-14T01:28:47;98284.56;;;0.81;nan
63287;BME280;49410;55.708;37.522;2023-02-14T01:31:16;98280.47;;;0.67;nan
63287;BME280;49410;55.708;37.522;2023-02-14T01:33:44;98282.44;;;0.65;nan
63287;BME280;49410;55.708;37.522;2023-02-14T01:36:27;98299.72;;;0.63;nan
63287;BME280;49410;55.708;37.522;2023-02-14T01:38:56;98300.41;;;0.55;nan
63287;BME280;49410;55.708;37.522;2023-02-14T01:41:23;98294.03;;;0.36;nan
63287;BME280;49410;55.708;37.522;2023-02-14T01:44:00;98309.19;;;0.37;nan
63287;BME280;49410;55.708;37.522;2023-02-14T01:46:33;98300.84;;;0.40;nan
63287;BME280;49410;55.708;37.522;2023-02-14T01:49:17;98291.31;;;0.17;nan
63287;BME280;49410;55.708;37.522;2023-02-14T01:52:18;98298.81;;;0.23;nan
63287;BME280;49410;55.708;37.522;2023-02-14T01:54:50;98293.59;;;0.31;nan
63287;BME280;49410;55.708;37.522;2023-02-14T01:57:18;98314.63;;;0.16;nan
63287;BME280;49410;55.708;37.522;2023-02-14T01:59:55;98307.22;;;-0.11;nan
63287;BME280;49410;55.708;37.522;2023-02-14T02:02:41;98312.41;;;-0.20;nan
63287;BME280;49410;55.708;37.522;2023-02-14T02:05:06;98314.19;;;-0.30;nan
63287;BME280;49410;55.708;37.522;2023-02-14T02:07:32;62999.78;;;-146.16;100.00
63287;BME280;49410;55.708;37.522;2023-02-14T02:10:00;62999.78;;;-146.16;100.00
63287;BME280;49410;55.708;37.522;2023-02-14T02:12:27;62999.78;;;-146.16;100.00
63287;BME280;49410;55.708;37.522;2023-02-14T02:14:54;62999.78;;;-146.16;100.00
63287;BME280;49410;55.708;37.522;2023-02-14T02:37:06;98319.19;;;0.15;nan
63287;BME280;49410;55.708;37.522;2023-02-14T02:47:43;98322.94;;;0.44;nan
63287;BME280;49410;55.708;37.522;2023-02-14T02:53:38;98329.16;;;0.44;nan
63287;BME280;49410;55.708;37.522;2023-02-14T02:56:19;98317.09;;;0.39;nan
63287;BME280;49410;55.708;37.522;2023-02-14T02:59:24;98338.91;;;0.45;nan
63287;BME280;49410;55.708;37.522;2023-02-14T03:02:20;98324.34;;;0.48;nan
63287;BME280;49410;55.708;37.522;2023-02-14T03:04:55;98337.66;;;0.50;nan
63287;BME280;49410;55.708;37.522;2023-02-14T03:07:34;98320.34;;;0.42;nan
63287;BME280;49410;55.708;37.522;2023-02-14T03:10:18;98322.94;;;0.44;nan
63287;BME280;49410;55.708;37.522;2023-02-14T03:18:01;98330.16;;;0.63;nan
63287;BME280;49410;55.708;37.522;2023-02-14T03:20:50;98330.16;;;0.63;nan
63287;BME280;49410;55.708;37.522;2023-02-14T03:37:07;98333.28;;;0.78;nan
63287;BME280;49410;55.708;37.522;2023-02-14T03:42:35;98333.59;;;0.75;nan
63287;BME280;49410;55.708;37.522;2023-02-14T03:45:05;98327.34;;;0.74;nan
63287;BME280;49410;55.708;37.522;2023-02-14T03:47:34;98345.34;;;0.74;nan
63287;BME280;49410;55.708;37.522;2023-02-14T03:50:06;98335.41;;;0.65;nan
63287;BME280;49410;55.708;37.522;2023-02-14T03:52:34;98346.75;;;0.78;nan
63287;BME280;49410;55.708;37.522;2023-02-14T03:55:02;98345.75;;;0.79;nan
63287;BME280;49410;55.708;37.522;2023-02-14T04:00:19;98336.69;;;0.60;nan
63287;BME280;49410;55.708;37.522;2023-02-14T04:02:48;98346.19;;;0.74;nan
63287;BME280;49410;55.708;37.522;2023-02-14T04:05:25;98351.72;;;0.73;nan
63287;BME280;49410;55.708;37.522;2023-02-14T04:07:54;98343.34;;;0.66;nan
63287;BME280;49410;55.708;37.522;2023-02-14T04:10:20;98354.25;;;0.74;nan
63287;BME280;49410;55.708;37.522;2023-02-14T04:12:47;98345.75;;;0.79;nan
63287;BME280;49410;55.708;37.522;2023-02-14T04:15:14;98363.31;;;0.73;nan
63287;BME280;49410;55.708;37.522;2023-02-14T04:17:39;98348.00;;;0.54;nan
63287;BME280;49410;55.708;37.522;2023-02-14T04:20:23;98373.31;;;0.52;nan
63287;BME280;49410;55.708;37.522;2023-02-14T04:22:49;98356.56;;;0.19;nan
63287;BME280;49410;55.708;37.522;2023-02-14T04:25:16;98364.16;;;0.13;nan
63287;BME280;49410;55.708;37.522;2023-02-14T04:27:41;98384.69;;;0.14;nan
63287;BME280;49410;55.708;37.522;2023-02-14T04:30:08;98373.25;;;0.22;nan
63287;BME280;49410;55.708;37.522;2023-02-14T04:32:34;98392.25;;;0.30;nan
63287;BME280;49410;55.708;37.522;2023-02-14T04:34:59;98374.25;;;0.21;nan
63287;BME280;49410;55.708;37.522;2023-02-14T04:37:25;98381.06;;;0.25;nan
63287;BME280;49410;55.708;37.522;2023-02-14T04:39:50;98371.41;;;0.23;nan
63287;BME280;49410;55.708;37.522;2023-02-14T04:42:16;98382.88;;;0.15;nan
63287;BME280;49410;55.708;37.522;2023-02-14T04:44:42;98398.72;;;0.18;nan
63287;BME280;49410;55.708;37.522;2023-02-14T04:47:08;98404.41;;;0.25;nan
63287;BME280;49410;55.708;37.522;2023-02-14T04:49:33;98387.72;;;0.31;nan
63287;BME280;49410;55.708;37.522;2023-02-14T04:52:00;98391.00;;;0.35;nan
63287;BME280;49410;55.708;37.522;2023-02-14T04:54:26;98404.72;;;0.41;nan
63287;BME280;49410;55.708;37.522;2023-02-14T04:56:51;98410.72;;;0.45;nan
63287;BME280;49410;55.708;37.522;2023-02-14T04:59:17;98421.88;;;0.40;nan
63287;BME280;49410;55.708;37.522;2023-02-14T05:01:43;98414.50;;;0.42;nan
63287;BME280;49410;55.708;37.522;2023-02-14T05:04:09;98412.28;;;0.48;nan
63287;BME280;49410;55.708;37.522;2023-02-14T05:06:34;98417.59;;;0.38;nan
63287;BME280;49410;55.708;37.522;2023-02-14T05:09:00;98424.44;;;0.42;nan
63287;BME280;49410;55.708;37.522;2023-02-14T05:11:27;98435.22;;;0.52;nan
63287;BME280;49410;55.708;37.522;2023-02-14T05:13:53;98445.22;;;0.40;nan
63287;BME280;49410;55.708;37.522;2023-02-14T05:16:18;98431.03;;;0.28;nan
63287;BME280;49410;55.708;37.522;2023-02-14T05:18:44;98436.81;;;0.23;nan
63287;BME280;49410;55.708;37.522;2023-02-14T05:21:10;98455.66;;;0.33;nan
63287;BME280;49410;55.708;37.522;2023-02-14T05:23:35;98447.66;;;0.43;nan
63287;BME280;49410;55.708;37.522;2023-02-14T05:26:01;98448.00;;;0.28;nan
63287;BME280;49410;55.708;37.522;2023-02-14T05:28:27;98450.88;;;0.37;nan
63287;BME280;49410;55.708;37.522;2023-02-14T05:30:53;98457.38;;;0.34;nan
63287;BME280;49410;55.708;37.522;2023-02-14T05:33:18;98447.50;;;0.35;nan
63287;BME280;49410;55.708;37.522;2023-02-14T05:35:44;98451.19;;;0.43;nan
63287;BME280;49410;55.708;37.522;2023-02-14T05:38:09;98467.31;;;0.43;nan
63287;BME280;49410;55.708;37.522;2023-02-14T05:40:38;98455.97;;;0.40;nan
63287;BME280;49410;55.708;37.522;2023-02-14T05:43:03;98459.56;;;0.50;nan
63287;BME280;49410;55.708;37.522;2023-02-14T05:45:29;98455.75;;;0.53;nan
63287;BME280;49410;55.708;37.522;2023-02-14T05:47:54;98458.44;;;0.53;nan
63287;BME280;49410;55.708;37.522;2023-02-14T05:50:20;98460.88;;;0.56;nan
63287;BME280;49410;55.708;37.522;2023-02-14T05:52:46;98459.72;;;0.49;nan
63287;BME280;49410;55.708;37.522;2023-02-14T05:55:11;98463.81;;;0.53;nan
63287;BME280;49410;55.708;37.522;2023-02-14T05:57:37;98464.22;;;0.48;nan
63287;BME280;49410;55.708;37.522;2023-02-14T06:00:04;98471.72;;;0.44;nan
63287;BME280;49410;55.708;37.522;2023-02-14T06:02:30;98450.91;;;0.46;nan
63287;BME280;49410;55.708;37.522;2023-02-14T06:04:56;98464.19;;;0.38;nan
63287;BME280;49410;55.708;37.522;2023-02-14T06:07:22;98466.44;;;0.33;nan
63287;BME280;49410;55.708;37.522;2023-02-14T06:09:47;98473.00;;;0.40;nan
63287;BME280;49410;55.708;37.522;2023-02-14T06:12:13;98470.78;;;0.55;nan
63287;BME280;49410;55.708;37.522;2023-02-14T06:14:38;98467.22;;;0.45;nan
63287;BME280;49410;55.708;37.522;2023-02-14T06:17:05;98466.25;;;0.56;nan
63287;BME280;49410;55.708;37.522;2023-02-14T06:19:31;98463.59;;;0.66;nan
63287;BME280;49410;55.708;37.522;2023-02-14T06:21:56;98462.31;;;0.70;nan
63287;BME280;49410;55.708;37.522;2023-02-14T06:24:22;98472.25;;;0.79;nan
63287;BME280;49410;55.708;37.522;2023-02-14T06:26:47;98462.94;;;0.83;nan
63287;BME280;49410;55.708;37.522;2023-02-14T06:29:15;98476.28;;;0.95;nan
63287;BME280;49410;55.708;37.522;2023-02-14T06:31:40;98467.03;;;0.87;nan
63287;BME280;49410;55.708;37.522;2023-02-14T06:34:06;98472.81;;;0.83;nan
63287;BME280;49410;55.708;37.522;2023-02-14T06:36:32;98489.53;;;0.76;nan
63287;BME280;49410;55.708;37.522;2023-02-14T06:38:57;98469.56;;;0.69;nan
63287;BME280;49410;55.708;37.522;2023-02-14T06:41:23;98471.13;;;0.82;nan
63287;BME280;49410;55.708;37.522;2023-02-14T06:43:49;98488.44;;;0.89;nan
63287;BME280;49410;55.708;37.522;2023-02-14T06:46:15;98483.59;;;0.83;nan
63287;BME280;49410;55.708;37.522;2023-02-14T06:48:41;98492.44;;;0.95;nan
63287;BME280;49410;55.708;37.522;2023-02-14T06:51:06;98491.56;;;0.94;nan
63287;BME280;49410;55.708;37.522;2023-02-14T06:53:32;98495.13;;;0.95;nan
63287;BME280;49410;55.708;37.522;2023-02-14T06:55:58;98510.56;;;0.92;nan
63287;BME280;49410;55.708;37.522;2023-02-14T06:58:23;98502.06;;;0.97;nan
63287;BME280;49410;55.708;37.522;2023-02-14T07:00:49;98501.19;;;0.87;nan
63287;BME280;49410;55.708;37.522;2023-02-14T07:05:40;62999.78;;;-146.16;100.00
63287;BME280;49410;55.708;37.522;2023-02-14T07:13:00;98515.38;;;0.89;nan
63287;BME280;49410;55.708;37.522;2023-02-14T07:15:25;98525.72;;;0.93;nan
63287;BME280;49410;55.708;37.522;2023-02-14T07:17:51;98522.06;;;1.04;nan
63287;BME280;49410;55.708;37.522;2023-02-14T07:20:17;98518.25;;;1.17;nan
63287;BME280;49410;55.708;37.522;2023-02-14T07:25:09;87401.00;;;-146.16;100.00
63287;BME280;49410;55.708;37.522;2023-02-14T08:13:58;62999.78;;;-146.16;100.00
63287;BME280;49410;55.708;37.522;2023-02-14T10:16:11;62999.78;;;-146.16;100.00
63287;BME280;49410;55.708;37.522;2023-02-14T10:19:23;62999.78;;;-146.16;100.00
63287;BME280;49410;55.708;37.522;2023-02-14T10:26:46;98763.88;;;0.89;nan
63287;BME280;49410;55.708;37.522;2023-02-14T10:29:17;98769.47;;;0.98;nan
63287;BME280;49410;55.708;37.522;2023-02-14T10:31:58;98738.00;;;0.77;nan
63287;BME280;49410;55.708;37.522;2023-02-14T10:34:38;98775.31;;;1.03;nan
63287;BME280;49410;55.708;37.522;2023-02-14T10:43:27;98783.25;;;0.83;nan
63287;BME280;49410;55.708;37.522;2023-02-14T11:13:57;98806.75;;;0.81;nan
63287;BME280;49410;55.708;37.522;2023-02-14T11:16:32;98816.50;;;0.93;nan
63287;BME280;49410;55.708;37.522;2023-02-14T11:22:27;98806.31;;;0.97;nan
63287;BME280;49410;55.708;37.522;2023-02-14T11:25:02;98826.16;;;0.96;nan
63287;BME280;49410;55.708;37.522;2023-02-14T11:27:28;98830.59;;;0.86;nan
63287;BME280;49410;55.708;37.522;2023-02-14T11:29:53;98814.94;;;0.91;nan
63287;BME280;49410;55.708;37.522;2023-02-14T11:32:29;98835.00;;;0.87;nan
63287;BME280;49410;55.708;37.522;2023-02-14T11:37:53;98846.94;;;0.73;nan
63287;BME280;49410;55.708;37.522;2023-02-14T11:42:53;98828.16;;;0.83;nan
63287;BME280;49410;55.708;37.522;2023-02-14T11:45:29;98837.91;;;0.95;nan
63287;BME280;49410;55.708;37.522;2023-02-14T11:48:19;98828.44;;;1.01;nan
63287;BME280;49410;55.708;37.522;2023-02-14T12:10:37;98879.81;;;1.09;nan
63287;BME280;49410;55.708;37.522;2023-02-14T12:13:22;98879.81;;;1.09;nan
63287;BME280;49410;55.708;37.522;2023-02-14T12:15:52;98865.41;;;0.99;nan
63287;BME280;49410;55.708;37.522;2023-02-14T12:18:41;98881.19;;;1.03;nan
63287;BME280;49410;55.708;37.522;2023-02-14T12:28:59;98876.88;;;1.12;nan
63287;BME280;49410;55.708;37.522;2023-02-14T12:31:26;98895.69;;;1.23;nan
63287;BME280;49410;55.708;37.522;2023-02-14T12:33:52;98903.22;;;1.30;nan
63287;BME280;49410;55.708;37.522;2023-02-14T12:36:32;98910.56;;;1.28;nan
63287;BME280;49410;55.708;37.522;2023-02-14T12:39:12;98914.31;;;1.15;nan
63287;BME280;49410;55.708;37.522;2023-02-14T12:41:48;98920.13;;;1.32;nan
63287;BME280;49410;55.708;37.522;2023-02-14T12:47:30;98933.44;;;1.33;nan
63287;BME280;49410;55.708;37.522;2023-02-14T12:49:57;98937.41;;;1.29;nan
63287;BME280;49410;55.708;37.522;2023-02-14T13:07:20;98970.50;;;1.20;nan
63287;BME280;49410;55.708;37.522;2023-02-14T13:09:58;98972.16;;;0.88;nan
63287;BME280;49410;55.708;37.522;2023-02-14T13:12:31;98988.06;;;0.91;nan
63287;BME280;49410;55.708;37.522;2023-02-14T13:17:42;99001.53;;;0.91;nan
63287;BME280;49410;55.708;37.522;2023-02-14T13:23:16;98986.50;;;0.89;nan
63287;BME280;49410;55.708;37.522;2023-02-14T13:25:52;98999.53;;;1.16;nan
63287;BME280;49410;55.708;37.522;2023-02-14T13:28:19;98964.47;;;0.84;nan
63287;BME280;49410;55.708;37.522;2023-02-14T13:30:45;98990.25;;;0.98;nan
63287;BME280;49410;55.708;37.522;2023-02-14T13:33:27;99018.66;;;0.90;nan
63287;BME280;49410;55.708;37.522;2023-02-14T13:35:59;99020.63;;;1.00;nan
63287;BME280;49410;55.708;37.522;2023-02-14T13:38:26;99015.50;;;0.97;nan
63287;BME280;49410;55.708;37.522;2023-02-14T13:40:54;99028.09;;;0.96;nan
63287;BME280;49410;55.708;37.522;2023-02-14T13:43:44;99036.53;;;1.03;nan
63287;BME280;49410;55.708;37.522;2023-02-14T13:46:09;99047.97;;;0.61;nan
63287;BME280;49410;55.708;37.522;2023-02-14T13:48:35;99052.34;;;0.62;nan
63287;BME280;49410;55.708;37.522;2023-02-14T13:51:06;99042.81;;;0.69;nan
63287;BME280;49410;55.708;37.522;2023-02-14T13:56:05;99071.31;;;0.72;nan
63287;BME280;49410;55.708;37.522;2023-02-14T13:58:52;99056.88;;;0.61;nan
63287;BME280;49410;55.708;37.522;2023-02-14T14:22:54;99105.31;;;0.61;nan
63287;BME280;49410;55.708;37.522;2023-02-14T14:27:57;99097.47;;;0.70;nan
63287;BME280;49410;55.708;37.522;2023-02-14T14:30:27;99107.75;;;0.53;nan
63287;BME280;49410;55.708;37.522;2023-02-14T14:32:55;99108.88;;;0.51;nan
63287;BME280;49410;55.708;37.522;2023-02-14T14:35:23;99112.41;;;0.51;nan
63287;BME280;49410;55.708;37.522;2023-02-14T14:37:54;99117.41;;;0.56;nan
63287;BME280;49410;55.708;37.522;2023-02-14T14:40:29;99120.06;;;0.33;nan
63287;BME280;49410;55.708;37.522;2023-02-14T14:43:11;99136.09;;;0.46;nan
63287;BME280;49410;55.708;37.522;2023-02-14T14:45:38;99127.28;;;0.33;nan
63287;BME280;49410;55.708;37.522;2023-02-14T14:50:49;99139.00;;;0.32;nan
63287;BME280;49410;55.708;37.522;2023-02-14T14:53:22;99147.84;;;0.34;nan
63287;BME280;49410;55.708;37.522;2023-02-14T14:55:49;99136.94;;;0.35;nan
63287;BME280;49410;55.708;37.522;2023-02-14T14:58:46;99150.63;;;0.32;nan
63287;BME280;49410;55.708;37.522;2023-02-14T15:01:26;99168.47;;;0.33;nan
63287;BME280;49410;55.708;37.522;2023-02-14T15:03:52;99163.97;;;0.34;nan
63287;BME280;49410;55.708;37.522;2023-02-14T15:06:21;99157.84;;;0.32;nan
63287;BME280;49410;55.708;37.522;2023-02-14T15:08:48;99152.13;;;0.48;nan
63287;BME280;49410;55.708;37.522;2023-02-14T15:11:25;99171.72;;;0.50;nan
63287;BME280;49410;55.708;37.522;2023-02-14T15:14:19;99157.50;;;0.36;nan
63287;BME280;49410;55.708;37.522;2023-02-14T15:16:59;99183.91;;;0.42;nan
63287;BME280;49410;55.708;37.522;2023-02-14T15:22:06;99190.25;;;0.30;nan
63287;BME280;49410;55.708;37.522;2023-02-14T15:24:32;99186.69;;;0.29;nan
63287;BME280;49410;55.708;37.522;2023-02-14T15:27:00;99184.88;;;0.06;nan
63287;BME280;49410;55.708;37.522;2023-02-14T15:29:29;99190.16;;;0.07;nan
63287;BME280;49410;55.708;37.522;2023-02-14T15:31:57;99193.41;;;-0.01;nan
63287;BME280;49410;55.708;37.522;2023-02-14T15:34:26;99202.84;;;0.05;nan
63287;BME280;49410;55.708;37.522;2023-02-14T15:36:54;99215.59;;;0.14;nan
63287;BME280;49410;55.708;37.522;2023-02-14T15:39:39;99211.41;;;0.10;nan
63287;BME280;49410;55.708;37.522;2023-02-14T15:42:19;99217.53;;;0.12;nan
63287;BME280;49410;55.708;37.522;2023-02-14T15:44:47;99223.44;;;-0.07;nan
63287;BME280;49410;55.708;37.522;2023-02-14T15:47:14;99226.69;;;-0.14;nan
63287;BME280;49410;55.708;37.522;2023-02-14T15:49:42;99244.09;;;-0.07;nan
63287;BME280;49410;55.708;37.522;2023-02-14T15:52:12;99245.56;;;-0.27;nan
63287;BME280;49410;55.708;37.522;2023-02-14T15:54:44;99226.28;;;-0.21;nan
63287;BME280;49410;55.708;37.522;2023-02-14T15:57:39;99254.88;;;-0.20;nan
63287;BME280;49410;55.708;37.522;2023-02-14T16:00:18;99251.78;;;-0.27;nan
63287;BME280;49410;55.708;37.522;2023-02-14T16:02:50;99262.34;;;-0.37;nan
63287;BME280;49410;55.708;37.522;2023-02-14T16:05:22;99262.66;;;-0.28;nan
63287;BME280;49410;55.708;37.522;2023-02-14T16:08:02;99269.72;;;-0.14;nan
63287;BME280;49410;55.708;37.522;2023-02-14T16:10:30;99267.88;;;-0.14;nan
63287;BME280;49410;55.708;37.522;2023-02-14T16:13:03;99261.34;;;-0.23;nan
63287;BME280;49410;55.708;37.522;2023-02-14T16:15:37;99259.16;;;-0.18;nan
63287;BME280;49410;55.708;37.522;2023-02-14T16:18:16;99260.47;;;-0.23;nan
63287;BME280;49410;55.708;37.522;2023-02-14T16:20:43;99262.31;;;-0.24;nan
63287;BME280;49410;55.708;37.522;2023-02-14T16:23:26;99285.50;;;-0.10;nan
63287;BME280;49410;55.708;37.522;2023-02-14T16:25:53;99269.25;;;-0.08;nan
63287;BME280;49410;55.708;37.522;2023-02-14T16:28:21;99273.94;;;0.01;nan
63287;BME280;49410;55.708;37.522;2023-02-14T16:30:53;99279.41;;;0.12;nan
63287;BME280;49410;55.708;37.522;2023-02-14T16:33:22;99287.09;;;-0.07;nan
63287;BME280;49410;55.708;37.522;2023-02-14T16:35:49;99292.50;;;-0.20;nan
63287;BME280;49410;55.708;37.522;2023-02-14T16:38:17;99298.31;;;-0.13;nan
63287;BME280;49410;55.708;37.522;2023-02-14T16:40:45;99302.25;;;-0.06;nan
63287;BME280;49410;55.708;37.522;2023-02-14T16:43:13;99313.44;;;0.01;nan
63287;BME280;49410;55.708;37.522;2023-02-14T16:45:39;99291.09;;;-0.13;nan
63287;BME280;49410;55.708;37.522;2023-02-14T16:48:05;99305.91;;;-0.07;nan
63287;BME280;49410;55.708;37.522;2023-02-14T16:50:31;99299.53;;;-0.30;nan
63287;BME280;49410;55.708;37.522;2023-02-14T16:52:58;99312.63;;;-0.26;nan
63287;BME280;49410;55.708;37.522;2023-02-14T16:55:23;99295.88;;;-0.29;nan
63287;BME280;49410;55.708;37.522;2023-02-14T16:57:53;99304.91;;;-0.30;nan
63287;BME280;49410;55.708;37.522;2023-02-14T17:00:19;99308.00;;;-0.24;nan
63287;BME280;49410;55.708;37.522;2023-02-14T17:02:45;99321.28;;;-0.09;nan
63287;BME280;49410;55.708;37.522;2023-02-14T17:05:11;99314.53;;;-0.15;nan
63287;BME280;49410;55.708;37.522;2023-02-14T17:07:37;99321.63;;;-0.14;nan
63287;BME280;49410;55.708;37.522;2023-02-14T17:10:08;99333.34;;;-0.02;nan
63287;BME280;49410;55.708;37.522;2023-02-14T17:12:37;99336.78;;;-0.13;nan
63287;BME280;49410;55.708;37.522;2023-02-14T17:15:09;99349.91;;;0.05;nan
63287;BME280;49410;55.708;37.522;2023-02-14T17:17:37;99337.53;;;-0.11;nan
63287;BME280;49410;55.708;37.522;2023-02-14T17:20:05;99348.72;;;-0.04;nan
63287;BME280;49410;55.708;37.522;2023-02-14T17:22:32;99341.81;;;0.05;nan
63287;BME280;49410;55.708;37.522;2023-02-14T17:24:58;99344.94;;;-0.02;nan
63287;BME280;49410;55.708;37.522;2023-02-14T17:27:24;99348.72;;;-0.04;nan
63287;BME280;49410;55.708;37.522;2023-02-14T17:29:49;99341.09;;;-0.10;nan
63287;BME280;49410;55.708;37.522;2023-02-14T17:32:16;99352.59;;;-0.08;nan
63287;BME280;49410;55.708;37.522;2023-02-14T17:34:42;99368.63;;;-0.20;nan
63287;BME280;49410;55.708;37.522;2023-02-14T17:37:07;99351.00;;;-0.24;nan
63287;BME280;49410;55.708;37.522;2023-02-14T17:39:33;99366.41;;;-0.39;nan
63287;BME280;49410;55.708;37.522;2023-02-14T17:41:58;99356.28;;;-0.35;nan
63287;BME280;49410;55.708;37.522;2023-02-14T17:44:24;99369.72;;;-0.35;nan
63287;BME280;49410;55.708;37.522;2023-02-14T17:46:50;99378.00;;;-0.38;nan
63287;BME280;49410;55.708;37.522;2023-02-14T17:49:17;99373.16;;;-0.33;nan
63287;BME280;49410;55.708;37.522;2023-02-14T17:51:42;99355.75;;;-0.27;nan
63287;BME280;49410;55.708;37.522;2023-02-14T17:54:08;99373.25;;;-0.09;nan
63287;BME280;49410;55.708;37.522;2023-02-14T17:56:33;99361.00;;;-0.26;nan
63287;BME280;49410;55.708;37.522;2023-02-14T17:58:59;99368.63;;;-0.20;nan
63287;BME280;49410;55.708;37.522;2023-02-14T18:01:26;99378.53;;;-0.33;nan
63287;BME280;49410;55.708;37.522;2023-02-14T18:03:53;99359.09;;;-0.37;nan
63287;BME280;49410;55.708;37.522;2023-02-14T18:06:19;99370.88;;;-0.13;nan
63287;BME280;49410;55.708;37.522;2023-02-14T18:08:47;99396.16;;;-0.29;nan
63287;BME280;49410;55.708;37.522;2023-02-14T18:11:19;99380.56;;;-0.24;nan
63287;BME280;49410;55.708;37.522;2023-02-14T18:13:45;99374.44;;;-0.26;nan
63287;BME280;49410;55.708;37.522;2023-02-14T18:16:13;99381.66;;;-0.52;nan
63287;BME280;49410;55.708;37.522;2023-02-14T18:18:40;99385.97;;;-0.37;nan
63287;BME280;49410;55.708;37.522;2023-02-14T18:21:09;99405.81;;;-0.52;nan
63287;BME280;49410;55.708;37.522;2023-02-14T18:23:35;99399.38;;;-0.63;nan
63287;BME280;49410;55.708;37.522;2023-02-14T18:26:04;99400.31;;;-0.64;nan
63287;BME280;49410;55.708;37.522;2023-02-14T18:28:30;62999.78;;;-146.16;100.00
63287;BME280;49410;55.708;37.522;2023-02-14T18:31:02;99410.88;;;-0.60;nan
63287;BME280;49410;55.708;37.522;2023-02-14T18:33:28;99406.59;;;-0.50;nan
63287;BME280;49410;55.708;37.522;2023-02-14T18:35:53;99414.50;;;-0.87;nan
63287;BME280;49410;55.708;37.522;2023-02-14T18:38:19;99420.25;;;-0.94;nan
63287;BME280;49410;55.708;37.522;2023-02-14T18:40:44;99411.19;;;-1.18;nan
63287;BME280;49410;55.708;37.522;2023-02-14T18:43:10;99404.53;;;-1.13;nan
63287;BME280;49410;55.708;37.522;2023-02-14T18:45:37;99409.81;;;-0.98;nan
63287;BME280;49410;55.708;37.522;2023-02-14T18:48:03;99421.00;;;-1.04;nan
63287;BME280;49410;55.708;37.522;2023-02-14T18:50:29;99420.09;;;-1.05;nan
63287;BME280;49410;55.708;37.522;2023-02-14T18:52:55;99411.00;;;-1.02;nan
63287;BME280;49410;55.708;37.522;2023-02-14T18:55:21;99439.56;;;-1.01;nan
63287;BME280;49410;55.708;37.522;2023-02-14T18:57:46;99431.75;;;-0.91;nan
63287;BME280;49410;55.708;37.522;2023-02-14T19:00:12;99428.72;;;-1.00;nan
63287;BME280;49410;55.708;37.522;2023-02-14T19:02:39;99441.38;;;-1.02;nan
63287;BME280;49410;55.708;37.522;2023-02-14T19:05:06;99440.13;;;-0.96;nan
63287;BME280;49410;55.708;37.522;2023-02-14T19:07:32;99446.56;;;-0.99;nan
63287;BME280;49410;55.708;37.522;2023-02-14T19:09:59;99436.31;;;-1.06;nan
63287;BME280;49410;55.708;37.522;2023-02-14T19:12:25;99441.13;;;-1.12;nan
63287;BME280;49410;55.708;37.522;2023-02-14T19:14:53;99451.84;;;-1.12;nan
63287;BME280;49410;55.708;37.522;2023-02-14T19:17:19;99461.78;;;-1.27;nan
63287;BME280;49410;55.708;37.522;2023-02-14T19:19:45;99452.78;;;-1.26;nan
63287;BME280;49410;55.708;37.522;2023-02-14T19:22:10;99461.13;;;-1.30;nan
63287;BME280;49410;55.708;37.522;2023-02-14T19:24:36;99474.97;;;-1.09;nan
63287;BME280;49410;55.708;37.522;2023-02-14T19:27:01;99474.53;;;-1.16;nan
63287;BME280;49410;55.708;37.522;2023-02-14T19:29:27;99460.88;;;-1.40;nan
63287;BME280;49410;55.708;37.522;2023-02-14T19:31:53;99485.28;;;-1.30;nan
63287;BME280;49410;55.708;37.522;2023-02-14T19:34:24;99490.63;;;-1.30;nan
63287;BME280;49410;55.708;37.522;2023-02-14T19:36:51;99487.50;;;-1.37;nan
63287;BME280;49410;55.708;37.522;2023-02-14T19:39:18;99477.06;;;-1.42;nan
63287;BME280;49410;55.708;37.522;2023-02-14T19:41:45;99489.81;;;-1.45;nan